createdAt,value
2018-09-10T00:01:26.283Z,6.03
2018-09-10T00:03:53.748Z,5.85
2018-09-10T00:06:21.272Z,7.75
2018-09-10T00:08:48.757Z,6.53
2018-09-10T00:11:16.268Z,6.57
2018-09-10T00:13:43.704Z,6.97
2018-09-10T00:16:11.335Z,6.55
2018-09-10T00:18:38.819Z,6.43
2018-09-10T00:21:06.242Z,6.90
2018-09-10T00:23:33.720Z,6.32
2018-09-10T00:26:01.181Z,6.72
2018-09-10T00:28:28.649Z,6.45
2018-09-10T00:30:56.132Z,7.50
2018-09-10T00:33:23.576Z,7.30
2018-09-10T00:35:51.031Z,5.47
2018-09-10T00:38:18.490Z,5.50
2018-09-10T00:40:45.964Z,6.85
2018-09-10T00:43:13.413Z,5.53
2018-09-10T00:45:40.836Z,6.68
2018-09-10T00:48:08.277Z,7.30
2018-09-10T00:50:35.758Z,6.45
2018-09-10T00:53:03.178Z,6.25
2018-09-10T00:55:30.732Z,5.85
2018-09-10T00:57:58.158Z,7.00
2018-09-10T01:00:25.697Z,6.05
2018-09-10T01:02:53.130Z,6.82
2018-09-10T01:05:20.593Z,6.28
2018-09-10T01:07:48.044Z,6.32
2018-09-10T01:10:15.511Z,13.60
2018-09-10T01:12:43.187Z,10.48
2018-09-10T01:15:10.684Z,11.77
2018-09-10T01:17:38.098Z,10.88
2018-09-10T01:20:05.533Z,8.05
2018-09-10T01:22:32.974Z,9.65
2018-09-10T01:25:00.388Z,6.72
2018-09-10T01:27:27.807Z,8.70
2018-09-10T01:29:55.343Z,9.90
2018-09-10T01:32:22.902Z,9.07
2018-09-10T01:35:06.997Z,9.10
2018-09-10T01:37:34.426Z,10.52
2018-09-10T01:40:01.827Z,11.68
2018-09-10T01:42:29.332Z,11.50
2018-09-10T01:44:56.779Z,12.75
2018-09-10T01:47:24.249Z,13.32
2018-09-10T01:49:51.688Z,11.20
2018-09-10T01:52:19.132Z,10.57
2018-09-10T01:54:46.549Z,9.48
2018-09-10T01:57:13.999Z,8.25
2018-09-10T01:59:41.520Z,7.68
2018-09-10T02:02:08.927Z,6.35
2018-09-10T02:04:36.317Z,6.35
2018-09-10T02:07:03.726Z,5.85
2018-09-10T02:09:31.204Z,6.68
2018-09-10T02:11:58.640Z,8.00
2018-09-10T02:14:26.156Z,9.70
2018-09-10T02:16:53.932Z,8.02
2018-09-10T02:19:21.357Z,6.20
2018-09-10T02:21:48.804Z,5.47
2018-09-10T02:24:16.222Z,6.60
2018-09-10T02:26:43.720Z,6.47
2018-09-10T02:29:11.263Z,6.75
2018-09-10T02:31:38.718Z,7.50
2018-09-10T02:34:06.169Z,7.45
2018-09-10T02:36:33.589Z,7.12
2018-09-10T02:39:01.023Z,6.45
2018-09-10T02:41:28.456Z,6.95
2018-09-10T02:43:55.938Z,7.25
2018-09-10T02:46:23.423Z,5.62
2018-09-10T02:48:50.888Z,5.30
2018-09-10T02:51:18.304Z,6.78
2018-09-10T02:53:45.714Z,7.30
2018-09-10T02:56:13.195Z,6.80
2018-09-10T02:58:40.693Z,5.65
2018-09-10T03:01:08.171Z,5.80
2018-09-10T03:03:36.081Z,6.57
2018-09-10T03:06:03.503Z,5.15
2018-09-10T03:08:30.977Z,6.20
2018-09-10T03:10:58.491Z,5.82
2018-09-10T03:13:25.881Z,6.22
2018-09-10T03:15:53.364Z,7.72
2018-09-10T03:18:20.814Z,7.00
2018-09-10T03:20:48.273Z,7.53
2018-09-10T03:23:15.708Z,5.97
2018-09-10T03:25:43.247Z,5.43
2018-09-10T03:28:11.228Z,4.62
2018-09-10T03:30:38.636Z,5.22
2018-09-10T03:33:06.026Z,4.60
2018-09-10T03:35:33.527Z,5.50
2018-09-10T03:38:01.037Z,5.78
2018-09-10T03:40:28.460Z,5.60
2018-09-10T03:42:55.924Z,5.03
2018-09-10T03:45:23.359Z,5.43
2018-09-10T03:47:50.750Z,5.28
2018-09-10T03:50:18.232Z,6.40
2018-09-10T03:52:45.685Z,5.72
2018-09-10T03:55:13.139Z,5.07
2018-09-10T03:57:40.564Z,5.35
2018-09-10T04:00:08.726Z,5.03
2018-09-10T04:02:36.174Z,5.25
2018-09-10T04:05:03.609Z,4.95
2018-09-10T04:07:31.014Z,6.03
2018-09-10T04:09:58.420Z,5.03
2018-09-10T04:12:26.100Z,4.68
2018-09-10T04:14:53.536Z,4.37
2018-09-10T04:17:21.039Z,6.50
2018-09-10T04:19:48.531Z,5.62
2018-09-10T04:22:15.986Z,6.20
2018-09-10T04:24:43.388Z,7.15
2018-09-10T04:27:10.955Z,6.53
2018-09-10T04:29:38.635Z,5.03
2018-09-10T04:32:06.051Z,4.68
2018-09-10T04:34:33.480Z,5.57
2018-09-10T04:37:00.950Z,5.97
2018-09-10T04:39:28.373Z,5.20
2018-09-10T04:41:55.845Z,5.55
2018-09-10T04:44:23.266Z,6.37
2018-09-10T04:46:50.723Z,5.70
2018-09-10T04:49:18.183Z,5.03
2018-09-10T04:51:45.608Z,7.62
2018-09-10T04:54:14.034Z,4.97
2018-09-10T04:56:41.497Z,6.70
2018-09-10T04:59:08.944Z,5.18
2018-09-10T05:01:36.446Z,4.55
2018-09-10T05:04:03.911Z,5.40
2018-09-10T05:06:31.386Z,5.75
2018-09-10T05:08:58.805Z,4.55
2018-09-10T05:11:26.320Z,4.78
2018-09-10T05:13:53.794Z,5.60
2018-09-10T05:16:21.271Z,5.80
2018-09-10T05:18:48.692Z,4.75
2018-09-10T05:21:16.351Z,5.72
2018-09-10T05:23:43.907Z,7.22
2018-09-10T05:26:11.330Z,5.40
2018-09-10T05:28:38.781Z,6.10
2018-09-10T05:31:06.196Z,5.35
2018-09-10T05:33:33.760Z,4.37
2018-09-10T05:36:01.248Z,6.68
2018-09-10T05:38:28.711Z,5.93
2018-09-10T05:40:56.220Z,6.70
2018-09-10T05:43:23.621Z,5.37
2018-09-10T05:45:51.834Z,5.28
2018-09-10T05:48:19.341Z,5.62
2018-09-10T05:50:46.823Z,7.32
2018-09-10T05:53:14.327Z,4.82
2018-09-10T05:55:41.803Z,4.97
2018-09-10T05:58:09.249Z,4.93
2018-09-10T06:00:36.694Z,5.40
2018-09-10T06:03:04.173Z,5.28
2018-09-10T06:05:31.642Z,6.97
2018-09-10T06:07:59.253Z,6.45
2018-09-10T06:10:26.698Z,6.18
2018-09-10T06:12:54.203Z,7.03
2018-09-10T06:15:21.637Z,7.05
2018-09-10T06:17:49.521Z,7.50
2018-09-10T06:20:17.031Z,8.05
2018-09-10T06:22:44.498Z,7.35
2018-09-10T06:25:12.089Z,7.15
2018-09-10T06:27:39.546Z,8.35
2018-09-10T06:30:07.056Z,8.35
2018-09-10T06:32:34.454Z,8.55
2018-09-10T06:35:01.972Z,10.07
2018-09-10T06:37:29.402Z,8.50
2018-09-10T06:39:56.846Z,9.80
2018-09-10T06:44:51.448Z,10.10
2018-09-10T06:47:18.870Z,10.30
2018-09-10T06:49:46.384Z,8.15
2018-09-10T06:52:13.846Z,9.13
2018-09-10T06:54:41.275Z,10.45
2018-09-10T06:57:08.741Z,11.93
2018-09-10T06:59:36.223Z,10.85
2018-09-10T07:02:03.681Z,11.93
2018-09-10T07:04:31.200Z,11.68
2018-09-10T07:06:58.616Z,11.98
2018-09-10T07:09:26.146Z,9.32
2018-09-10T07:11:53.807Z,11.15
2018-09-10T07:14:21.266Z,9.55
2018-09-10T07:16:48.738Z,9.45
2018-09-10T07:19:16.144Z,10.02
2018-09-10T07:21:43.608Z,11.70
2018-09-10T07:24:11.122Z,13.85
2018-09-10T07:26:38.575Z,12.20
2018-09-10T07:29:06.011Z,12.07
2018-09-10T07:31:34.113Z,11.57
2018-09-10T07:34:01.765Z,12.90
2018-09-10T07:36:29.215Z,11.88
2018-09-10T07:38:56.786Z,14.82
2018-09-10T07:41:24.227Z,17.15
2018-09-10T07:43:51.740Z,12.32
2018-09-10T07:46:19.212Z,13.00
2018-09-10T07:48:46.730Z,15.05
2018-09-10T08:08:24.451Z,28.15
2018-09-10T08:10:52.013Z,20.62
2018-09-10T08:13:19.607Z,20.55
2018-09-10T08:15:47.055Z,24.40
2018-09-10T08:18:14.495Z,20.42
2018-09-10T08:20:41.966Z,21.37
2018-09-10T08:23:09.444Z,15.00
2018-09-10T08:25:37.078Z,19.65
2018-09-10T08:28:04.574Z,16.98
2018-09-10T08:30:32.138Z,19.67
2018-09-10T08:32:59.526Z,17.20
2018-09-10T08:35:27.093Z,18.83
2018-09-10T08:37:54.538Z,15.88
2018-09-10T08:40:22.297Z,16.30
2018-09-10T08:42:49.948Z,19.40
2018-09-10T08:45:17.419Z,17.08
2018-09-10T08:47:44.851Z,16.83
2018-09-10T08:50:12.417Z,16.70
2018-09-10T08:52:40.869Z,15.25
2018-09-10T08:55:08.336Z,11.55
2018-09-10T08:57:35.824Z,10.93
2018-09-10T09:00:03.250Z,9.55
2018-09-10T09:02:30.752Z,9.75
2018-09-10T09:04:58.203Z,11.15
2018-09-10T09:07:25.730Z,10.57
2018-09-10T09:09:53.224Z,10.43
2018-09-10T09:12:20.770Z,11.70
2018-09-10T09:14:48.811Z,10.25
2018-09-10T09:17:16.317Z,10.48
2018-09-10T09:19:43.765Z,9.82
2018-09-10T09:22:11.334Z,8.55
2018-09-10T09:24:38.863Z,9.27
2018-09-10T09:27:06.376Z,10.73
2018-09-10T09:29:34.909Z,11.90
2018-09-10T09:32:03.346Z,12.27
2018-09-10T09:34:30.916Z,10.70
2018-09-10T09:40:09.467Z,8.02
2018-09-10T09:45:38.460Z,8.73
2018-09-10T09:48:05.952Z,11.82
2018-09-10T09:50:33.476Z,9.82
2018-09-10T09:53:00.883Z,8.63
2018-09-10T09:55:29.128Z,9.43
2018-09-10T09:57:56.607Z,9.70
2018-09-10T10:00:24.088Z,8.15
2018-09-10T10:02:51.573Z,7.20
2018-09-10T10:05:19.058Z,7.30
2018-09-10T10:07:46.523Z,8.38
2018-09-10T10:10:14.071Z,8.93
2018-09-10T10:12:41.489Z,10.43
2018-09-10T10:15:09.079Z,8.50
2018-09-10T10:17:36.613Z,8.98
2018-09-10T10:20:04.120Z,8.63
2018-09-10T10:22:31.608Z,9.25
2018-09-10T10:24:59.022Z,7.45
2018-09-10T10:27:26.475Z,6.50
2018-09-10T10:29:54.244Z,7.15
2018-09-10T10:32:21.678Z,7.50
2018-09-10T10:34:49.074Z,9.18
2018-09-10T10:37:16.495Z,9.02
2018-09-10T10:39:44.050Z,9.80
2018-09-10T10:42:11.520Z,9.25
2018-09-10T10:44:38.972Z,9.13
2018-09-10T10:47:06.423Z,9.10
2018-09-10T10:49:33.945Z,10.23
2018-09-10T10:52:01.412Z,9.07
2018-09-10T10:54:28.940Z,7.80
2018-09-10T10:56:56.392Z,8.23
2018-09-10T10:59:23.826Z,9.63
2018-09-10T11:01:51.417Z,7.78
2018-09-10T11:04:19.076Z,8.55
2018-09-10T11:06:46.545Z,10.15
2018-09-10T11:09:14.009Z,10.43
2018-09-10T11:11:41.442Z,10.18
2018-09-10T11:14:09.018Z,11.00
2018-09-10T11:16:36.626Z,9.68
2018-09-10T11:19:04.116Z,9.98
2018-09-10T11:21:31.637Z,8.80
2018-09-10T11:23:59.753Z,9.85
2018-09-10T11:26:27.285Z,11.88
2018-09-10T11:28:55.016Z,10.95
2018-09-10T11:31:22.517Z,9.25
2018-09-10T11:33:50.008Z,10.70
2018-09-10T11:36:17.550Z,8.43
2018-09-10T11:38:44.960Z,8.57
2018-09-10T11:41:12.508Z,8.40
2018-09-10T11:43:40.690Z,9.35
2018-09-10T11:46:08.217Z,9.85
2018-09-10T11:48:35.692Z,10.80
2018-09-10T11:51:03.273Z,11.90
2018-09-10T11:53:30.920Z,12.77
2018-09-10T11:55:58.330Z,8.85
2018-09-10T11:58:25.793Z,10.80
2018-09-10T12:00:53.253Z,10.50
2018-09-10T12:03:20.734Z,11.45
2018-09-10T12:05:48.249Z,12.75
2018-09-10T12:08:15.713Z,8.98
2018-09-10T12:10:43.125Z,10.93
2018-09-10T12:13:10.601Z,9.00
2018-09-10T12:22:59.558Z,10.32
2018-09-10T12:25:27.122Z,12.48
2018-09-10T12:27:54.665Z,8.35
2018-09-10T12:30:22.133Z,8.90
2018-09-10T12:32:49.654Z,8.05
2018-09-10T12:35:17.170Z,9.07
2018-09-10T12:37:44.645Z,9.70
2018-09-10T12:40:12.090Z,10.65
2018-09-10T12:42:39.761Z,14.45
2018-09-10T12:45:07.257Z,13.93
2018-09-10T12:47:34.713Z,11.65
2018-09-10T12:50:02.168Z,10.90
2018-09-10T12:52:29.618Z,9.80
2018-09-10T12:54:57.110Z,9.70
2018-09-10T12:57:24.617Z,9.65
2018-09-10T12:59:52.325Z,9.90
2018-09-10T13:02:20.215Z,9.10
2018-09-10T13:07:14.779Z,11.15
2018-09-10T13:09:42.353Z,11.88
2018-09-10T13:12:09.815Z,15.38
2018-09-10T13:14:37.302Z,14.48
2018-09-10T13:17:04.933Z,20.67
2018-09-10T13:19:32.433Z,10.88
2018-09-10T13:21:59.930Z,10.43
2018-09-10T13:24:27.341Z,12.02
2018-09-10T13:26:54.964Z,12.13
2018-09-10T13:29:22.458Z,10.50
2018-09-10T13:31:49.907Z,13.13
2018-09-10T13:34:17.335Z,10.75
2018-09-10T13:36:44.882Z,10.82
2018-09-10T13:39:12.348Z,12.52
2018-09-10T13:41:40.056Z,11.20
2018-09-10T13:44:07.559Z,15.32
2018-09-10T13:46:35.051Z,12.23
2018-09-10T13:49:02.499Z,13.23
2018-09-10T13:51:30.164Z,13.48
2018-09-10T15:14:52.535Z,14.40
2018-09-10T15:17:20.094Z,14.80
2018-09-10T15:19:47.583Z,12.55
2018-09-10T15:22:15.129Z,10.90
2018-09-10T15:24:42.623Z,11.80
2018-09-10T15:27:10.085Z,15.43
2018-09-10T15:29:37.550Z,10.07
2018-09-10T15:32:05.098Z,11.45
2018-09-10T15:34:32.549Z,14.23
2018-09-10T15:37:00.060Z,10.65
2018-09-10T15:39:27.713Z,13.52
2018-09-10T15:41:55.523Z,14.30
2018-09-10T15:44:23.850Z,10.65
2018-09-10T15:46:51.507Z,8.75
2018-09-10T15:49:19.069Z,9.25
2018-09-10T15:51:46.571Z,9.93
2018-09-10T15:54:14.021Z,10.20
2018-09-10T15:56:41.593Z,10.00
2018-09-10T15:59:09.065Z,11.12
2018-09-10T16:01:36.691Z,10.25
2018-09-10T16:04:04.136Z,5.97
2018-09-10T16:06:31.627Z,10.90
2018-09-10T16:08:59.114Z,10.85
2018-09-10T16:11:26.587Z,7.53
2018-09-10T16:13:54.237Z,8.43
2018-09-10T16:16:21.724Z,8.45
2018-09-10T16:18:49.204Z,8.52
2018-09-10T16:21:16.736Z,8.20
2018-09-10T16:23:45.322Z,8.55
2018-09-10T16:26:12.863Z,6.28
2018-09-10T16:28:40.455Z,6.30
2018-09-10T16:31:07.957Z,8.32
2018-09-10T16:33:35.448Z,6.65
2018-09-10T16:36:02.902Z,6.72
2018-09-10T16:38:30.660Z,6.80
2018-09-10T16:40:58.118Z,7.97
2018-09-10T16:43:25.712Z,5.90
2018-09-10T16:45:53.210Z,7.00
2018-09-10T16:48:20.703Z,6.65
2018-09-10T16:50:48.094Z,7.80
2018-09-10T16:53:15.588Z,5.97
2018-09-10T16:55:43.051Z,7.70
2018-09-10T16:58:10.451Z,7.40
2018-09-10T17:00:37.941Z,9.55
2018-09-10T17:03:05.729Z,7.10
2018-09-10T17:05:33.161Z,8.82
2018-09-10T17:08:00.591Z,9.95
2018-09-10T17:12:55.040Z,9.93
2018-09-10T17:15:22.565Z,9.05
2018-09-10T17:17:49.959Z,8.98
2018-09-10T17:20:17.440Z,6.60
2018-09-10T17:30:06.378Z,7.32
2018-09-10T17:37:28.132Z,8.50
2018-09-10T17:39:55.652Z,8.88
2018-09-10T17:42:23.163Z,8.82
2018-09-10T17:44:50.636Z,6.93
2018-09-10T17:47:18.176Z,8.63
2018-09-10T17:49:45.559Z,8.95
2018-09-10T17:52:13.039Z,8.55
2018-09-10T17:54:40.527Z,8.30
2018-09-10T17:57:08.018Z,12.75
2018-09-10T17:59:35.580Z,8.50
2018-09-10T18:02:03.043Z,10.13
2018-09-10T18:04:30.545Z,11.75
2018-09-10T18:06:57.971Z,12.98
2018-09-10T18:09:25.434Z,10.65
2018-09-10T18:11:52.900Z,7.30
2018-09-10T18:14:20.328Z,7.60
2018-09-10T18:16:47.833Z,8.65
2018-09-10T18:19:15.342Z,9.00
2018-09-10T18:21:42.849Z,9.25
2018-09-10T18:24:10.362Z,8.82
2018-09-10T18:26:37.899Z,12.00
2018-09-10T18:29:05.379Z,8.18
2018-09-10T18:31:32.834Z,9.55
2018-09-10T18:34:00.452Z,7.05
2018-09-10T18:36:27.922Z,7.43
2018-09-10T18:38:55.387Z,9.68
2018-09-10T18:41:22.836Z,12.32
2018-09-10T18:43:50.269Z,9.70
2018-09-10T18:46:17.706Z,8.88
2018-09-10T18:48:45.183Z,11.30
2018-09-10T18:51:12.633Z,8.45
2018-09-10T18:53:40.110Z,9.50
2018-09-10T18:56:07.520Z,6.20
2018-09-10T18:58:35.025Z,7.40
2018-09-10T19:01:03.450Z,6.95
2018-09-10T19:03:30.931Z,6.97
2018-09-10T19:08:25.503Z,6.30
2018-09-10T19:13:19.943Z,8.05
2018-09-10T19:18:14.383Z,7.22
2018-09-10T19:20:42.239Z,7.30
2018-09-10T19:23:09.799Z,7.35
2018-09-10T19:25:37.291Z,7.07
2018-09-10T19:28:04.782Z,6.82
2018-09-10T19:30:33.076Z,6.90
2018-09-10T19:33:00.697Z,5.97
2018-09-10T19:35:28.380Z,6.53
2018-09-10T19:37:55.797Z,6.05
2018-09-10T19:40:23.283Z,5.65
2018-09-10T19:42:50.717Z,5.40
2018-09-10T19:45:18.154Z,5.43
2018-09-10T19:47:45.756Z,5.57
2018-09-10T19:50:13.404Z,4.43
2018-09-10T19:52:40.944Z,5.72
2018-09-10T19:55:08.390Z,6.60
2018-09-10T19:57:35.880Z,9.02
2018-09-10T20:00:03.327Z,7.70
2018-09-10T20:02:30.787Z,9.77
2018-09-10T20:04:58.254Z,8.82
2018-09-10T20:07:25.692Z,11.75
2018-09-10T20:09:53.125Z,9.07
2018-09-10T20:12:20.593Z,9.57
2018-09-10T20:14:48.039Z,8.73
2018-09-10T20:17:15.549Z,9.02
2018-09-10T20:19:42.969Z,8.45
2018-09-10T20:22:10.466Z,8.38
2018-09-10T20:24:37.995Z,7.97
2018-09-10T20:27:05.426Z,7.20
2018-09-10T20:29:32.939Z,7.00
2018-09-10T20:32:00.478Z,7.65
2018-09-10T20:34:27.955Z,7.50
2018-09-10T20:36:55.378Z,7.45
2018-09-10T20:39:22.873Z,7.00
2018-09-10T20:41:50.352Z,8.35
2018-09-10T20:44:17.813Z,7.75
2018-09-10T20:46:45.228Z,9.00
2018-09-10T20:49:12.731Z,9.70
2018-09-10T20:51:41.034Z,9.55
2018-09-10T20:54:08.449Z,8.50
2018-09-10T20:56:35.872Z,9.70
2018-09-10T20:59:03.314Z,8.70
2018-09-10T21:01:31.005Z,9.68
2018-09-10T21:03:58.516Z,8.75
2018-09-10T21:06:26.019Z,8.20
2018-09-10T21:08:53.468Z,8.35
2018-09-10T21:11:21.549Z,6.62
2018-09-10T21:13:49.123Z,7.00
2018-09-10T21:16:16.741Z,7.45
2018-09-10T21:18:44.826Z,7.40
2018-09-10T21:21:12.276Z,8.13
2018-09-10T21:23:39.744Z,8.00
2018-09-10T21:26:07.227Z,6.28
2018-09-10T21:28:34.666Z,6.60
2018-09-10T21:31:02.198Z,6.47
2018-09-10T21:33:29.638Z,5.82
2018-09-10T21:35:57.125Z,6.80
2018-09-10T21:38:24.576Z,4.80
2018-09-10T21:40:52.064Z,5.50
2018-09-10T21:43:19.504Z,4.93
2018-09-10T21:45:46.997Z,6.28
2018-09-10T21:48:14.613Z,7.07
2018-09-10T21:50:42.060Z,6.10
2018-09-10T21:53:09.516Z,7.05
2018-09-10T21:55:37.003Z,6.03
2018-09-10T21:58:04.508Z,6.47
2018-09-10T22:00:32.109Z,5.97
2018-09-10T22:02:59.684Z,4.65
2018-09-10T22:05:27.760Z,5.72
2018-09-10T22:07:56.090Z,6.50
2018-09-10T22:10:23.613Z,5.55
2018-09-10T22:12:51.068Z,6.75
2018-09-10T22:15:18.580Z,6.30
2018-09-10T22:17:46.048Z,7.03
2018-09-10T22:20:13.491Z,5.40
2018-09-10T22:22:40.944Z,4.95
2018-09-10T22:25:08.460Z,5.18
2018-09-10T22:27:35.940Z,5.18
2018-09-10T22:30:03.367Z,5.90
2018-09-10T22:32:31.672Z,5.85
2018-09-10T22:34:59.300Z,6.85
2018-09-10T22:37:26.753Z,5.45
2018-09-10T22:39:54.154Z,5.00
2018-09-10T22:42:21.674Z,6.85
2018-09-10T22:44:49.139Z,5.70
2018-09-10T22:47:16.618Z,6.07
2018-09-10T22:49:44.042Z,5.75
2018-09-10T22:52:11.492Z,6.25
2018-09-10T22:54:38.914Z,7.70
2018-09-10T22:57:06.502Z,5.65
2018-09-10T22:59:34.001Z,6.10
2018-09-10T23:02:01.469Z,5.43
2018-09-10T23:04:28.901Z,6.57
2018-09-10T23:06:56.350Z,4.70
2018-09-10T23:09:24.009Z,4.85
2018-09-10T23:11:51.432Z,6.53
2018-09-10T23:14:18.887Z,5.28
2018-09-10T23:16:46.540Z,7.03
2018-09-10T23:19:14.015Z,7.85
2018-09-10T23:21:42.175Z,6.05
2018-09-10T23:24:09.600Z,4.70
2018-09-10T23:26:37.071Z,5.95
2018-09-10T23:29:04.530Z,3.78
2018-09-10T23:31:31.927Z,4.45
2018-09-10T23:33:59.351Z,6.65
2018-09-10T23:36:26.865Z,4.85
2018-09-10T23:38:54.316Z,3.78
2018-09-10T23:41:21.747Z,5.85
2018-09-10T23:43:49.200Z,4.97
2018-09-10T23:46:16.640Z,4.07
2018-09-10T23:48:44.105Z,4.90
2018-09-10T23:51:11.522Z,4.55
2018-09-10T23:53:38.935Z,5.95
2018-09-10T23:56:06.425Z,4.22
2018-09-10T23:58:33.821Z,4.35
